Time;durP1;ratioP1;P1;durP2;ratioP2;P2;SDS_P1;SDS_P2;PMS_P1;PMS_P2;Temp;Humidity;BMP_temperature;BMP_pressure;BME280_temperature;BME280_humidity;BME280_pressure;Samples;Min_cycle;Max_cycle;Signal;HPM_P1;HPM_P2
2023/12/08 00:01:25;;;;;;;10.45;7.70;;;;;;;3.63;64.56;100153.63;4126374;28;20039;-68
2023/12/08 00:03:28;;;;;;;15.18;10.27;;;;;;;3.65;64.78;100144.28;4123770;28;20050;-66
2023/12/08 00:05:31;;;;;;;14.40;9.55;;;;;;;3.64;64.73;100129.69;4128155;28;20048;-66
2023/12/08 00:07:34;;;;;;;13.25;8.88;;;;;;;3.66;65.62;100125.47;4122137;28;20046;-66
2023/12/08 00:09:37;;;;;;;15.07;9.85;;;;;;;3.81;64.96;100120.91;4119776;28;20031;-66
2023/12/08 00:11:40;;;;;;;14.40;9.88;;;;;;;3.72;65.02;100117.09;4122278;28;20061;-66
2023/12/08 00:13:44;;;;;;;13.65;8.95;;;;;;;3.68;64.97;100095.56;4099834;28;20051;-66
2023/12/08 00:15:48;;;;;;;14.38;9.25;;;;;;;3.58;65.70;100111.47;4122349;28;20129;-66
2023/12/08 00:17:51;;;;;;;13.48;8.10;;;;;;;3.64;65.62;100107.41;4123174;28;20034;-66
2023/12/08 00:19:54;;;;;;;11.65;7.47;;;;;;;3.56;65.34;100106.25;4102701;28;20422;-66
2023/12/08 00:21:57;;;;;;;12.32;8.88;;;;;;;3.60;65.42;100109.84;4111043;28;20050;-66
2023/12/08 00:24:01;;;;;;;12.55;8.13;;;;;;;3.60;65.81;100102.13;4120691;28;20074;-66
2023/12/08 00:26:04;;;;;;;13.40;8.82;;;;;;;3.71;65.21;100089.63;4128459;28;20485;-66
2023/12/08 00:28:08;;;;;;;12.85;7.90;;;;;;;3.70;64.72;100075.06;4122028;28;20046;-66
2023/12/08 00:30:12;;;;;;;12.07;8.45;;;;;;;3.62;64.63;100067.94;4116126;28;20049;-66
2023/12/08 00:32:17;;;;;;;12.57;8.77;;;;;;;3.66;64.70;100046.69;4122118;28;20046;-66
2023/12/08 00:34:20;;;;;;;;;;;;;;;3.47;64.16;100083.66;4115741;28;20042;-66
2023/12/08 00:36:25;;;;;;;15.73;9.13;;;;;;;3.47;65.29;100093.94;4097956;28;20049;-66
2023/12/08 00:38:28;;;;;;;14.32;9.13;;;;;;;3.53;65.33;100089.88;4119629;28;20039;-66
2023/12/08 00:40:31;;;;;;;12.88;8.73;;;;;;;3.57;65.42;100079.75;4101913;28;20119;-66
2023/12/08 00:42:35;;;;;;;14.25;9.88;;;;;;;3.65;63.98;100054.31;4119412;28;20044;-66
2023/12/08 00:44:38;;;;;;;11.05;7.63;;;;;;;3.61;64.60;100075.59;4116578;28;20599;-66
2023/12/08 00:46:41;;;;;;;11.05;7.93;;;;;;;3.58;64.68;100070.34;4117791;28;20045;-66
2023/12/08 00:48:46;;;;;;;11.82;8.65;;;;;;;3.58;64.88;100058.38;4123376;28;20077;-66
2023/12/08 00:50:48;;;;;;;14.57;9.40;;;;;;;3.60;64.64;100058.44;4121469;28;20078;-66
2023/12/08 00:52:51;;;;;;;17.63;10.68;;;;;;;3.58;64.24;100067.78;4118372;28;20466;-66
2023/12/08 00:54:53;;;;;;;16.73;10.00;;;;;;;3.61;64.32;100086.75;4099360;28;20675;-66
2023/12/08 00:56:55;;;;;;;14.93;9.38;;;;;;;3.67;64.55;100101.53;4122188;28;20125;-66
2023/12/08 00:58:58;;;;;;;13.10;9.07;;;;;;;3.73;64.82;100095.72;4117604;28;20405;-66
2023/12/08 01:01:04;;;;;;;16.85;11.60;;;;;;;3.70;64.77;100103.34;4123354;28;20043;-66
2023/12/08 01:03:07;;;;;;;12.60;8.13;;;;;;;3.75;64.51;100094.06;4098379;28;20051;-66
2023/12/08 01:05:11;;;;;;;13.13;7.95;;;;;;;3.74;64.89;100071.75;4125940;28;20042;-67
2023/12/08 01:07:14;;;;;;;16.42;9.15;;;;;;;3.78;64.66;100068.47;4118624;28;20034;-66
2023/12/08 01:09:17;;;;;;;12.45;7.68;;;;;;;3.72;65.02;100073.41;4118451;28;20049;-66
2023/12/08 01:11:29;;;;;;;29.35;18.40;;;;;;;3.67;64.20;100071.53;4119278;28;20400;-66
2023/12/08 01:13:32;;;;;;;19.05;12.15;;;;;;;3.70;64.62;100070.78;4117623;28;20042;-66
2023/12/08 01:15:33;;;;;;;45.03;26.52;;;;;;;3.76;64.78;100064.97;4121010;28;20038;-66
2023/12/08 01:17:36;;;;;;;29.25;18.00;;;;;;;3.84;64.15;100050.69;4123775;28;20082;-66
2023/12/08 01:19:39;;;;;;;20.15;12.05;;;;;;;3.83;63.90;100036.97;4122856;28;20035;-66
2023/12/08 01:21:43;;;;;;;14.43;9.40;;;;;;;3.83;64.45;100031.81;4120675;28;20038;-67
2023/12/08 01:23:46;;;;;;;11.77;7.72;;;;;;;3.83;64.15;100033.53;4127025;28;20528;-66
2023/12/08 01:25:49;;;;;;;14.65;9.98;;;;;;;3.86;64.30;100030.19;4119208;28;20428;-66
2023/12/08 01:27:53;;;;;;;12.40;8.25;;;;;;;3.88;64.42;100028.53;4121058;28;20125;-66
2023/12/08 01:29:55;;;;;;;11.48;7.93;;;;;;;3.93;62.76;100025.31;4121209;28;20484;-66
2023/12/08 01:31:57;;;;;;;13.32;8.45;;;;;;;3.90;63.39;100022.63;4106558;28;20031;-66
2023/12/08 01:34:00;;;;;;;19.77;12.27;;;;;;;3.92;63.79;100025.25;4120932;28;20034;-66
2023/12/08 01:36:04;;;;;;;25.15;17.13;;;;;;;3.89;63.27;100040.59;4119192;28;20054;-66
2023/12/08 01:38:30;;;;;;;19.33;11.55;;;;;;;3.80;63.13;100052.28;4116531;28;20050;-66
2023/12/08 01:40:33;;;;;;;13.80;8.75;;;;;;;3.83;63.03;100061.81;4086133;29;20135;-66
2023/12/08 01:42:36;;;;;;;18.40;10.57;;;;;;;3.88;63.17;100055.13;4119266;28;20047;-66
2023/12/08 01:44:39;;;;;;;34.00;18.67;;;;;;;4.01;63.20;100036.69;4123991;28;20042;-66
2023/12/08 01:46:42;;;;;;;18.08;11.75;;;;;;;3.96;63.48;100042.53;4118965;28;20043;-65
2023/12/08 01:48:45;;;;;;;16.67;9.73;;;;;;;3.96;64.07;100037.41;4121567;28;20064;-66
2023/12/08 01:50:49;;;;;;;15.02;9.45;;;;;;;3.97;64.36;100046.84;4102694;28;20126;-66
2023/12/08 01:52:53;;;;;;;25.65;14.82;;;;;;;3.93;64.48;100060.41;4119884;28;20074;-65
2023/12/08 01:55:00;;;;;;;67.72;31.40;;;;;;;3.93;63.91;100060.41;4125112;28;20042;-65
2023/12/08 01:57:03;;;;;;;28.08;15.70;;;;;;;3.90;64.06;100057.72;4117346;28;20453;-66
2023/12/08 01:59:09;;;;;;;29.02;15.23;;;;;;;3.93;63.94;100068.13;4123104;28;20053;-66
2023/12/08 02:01:11;;;;;;;14.10;8.57;;;;;;;3.93;64.21;100062.97;4119383;28;20035;-66
2023/12/08 02:03:16;;;;;;;13.30;8.57;;;;;;;3.91;63.81;100070.66;4126441;28;20038;-66
2023/12/08 02:05:21;;;;;;;19.00;9.38;;;;;;;3.95;63.51;100071.66;4117175;28;20452;-66
2023/12/08 02:07:25;;;;;;;16.58;10.23;;;;;;;3.92;63.32;100061.25;4120933;28;20126;-66
2023/12/08 02:10:19;;;;;;;48.60;22.92;;;;;;;3.90;63.22;100068.03;4124442;28;20097;-66
2023/12/08 02:12:23;;;;;;;80.72;33.63;;;;;;;3.92;63.74;100061.25;4113698;28;20039;-66
2023/12/08 02:14:26;;;;;;;120.05;45.40;;;;;;;3.95;63.29;100059.66;4125733;28;20386;-66
2023/12/08 02:16:37;;;;;;;61.90;29.25;;;;;;;4.03;63.68;100065.06;4122778;28;20035;-66
2023/12/08 02:18:40;;;;;;;45.17;21.17;;;;;;;4.00;63.04;100065.84;4119560;28;20035;-65
2023/12/08 02:20:43;;;;;;;49.53;22.27;;;;;;;3.99;63.07;100055.50;4123576;28;20421;-65
2023/12/08 02:22:46;;;;;;;31.35;15.18;;;;;;;4.03;63.19;100065.06;4120589;28;20053;-65
2023/12/08 02:24:50;;;;;;;14.90;9.23;;;;;;;3.87;61.74;100057.63;4117552;28;20129;-65
2023/12/08 02:26:53;;;;;;;21.48;10.95;;;;;;;3.86;62.39;100061.06;4121241;28;20513;-66
2023/12/08 02:28:56;;;;;;;31.50;15.38;;;;;;;3.87;62.68;100063.66;4102592;28;20045;-67
2023/12/08 02:31:01;;;;;;;41.65;20.95;;;;;;;3.90;62.34;100053.50;4106675;28;20071;-66
2023/12/08 02:33:09;;;;;;;28.15;16.15;;;;;;;3.94;63.05;100051.88;4126171;28;20039;-67
2023/12/08 02:35:14;;;;;;;109.28;65.22;;;;;;;3.92;63.03;100056.97;4121955;28;20544;-66
2023/12/08 02:37:17;;;;;;;;;;;;;;;3.83;62.91;100056.66;4108443;28;20055;-65
2023/12/08 02:39:21;;;;;;;14.57;10.00;;;;;;;3.89;63.42;100054.31;4120544;28;20331;-65
2023/12/08 02:41:25;;;;;;;16.35;9.55;;;;;;;3.90;63.35;100042.31;4110040;28;20074;-66
2023/12/08 02:43:28;;;;;;;13.90;9.55;;;;;;;3.89;63.62;100032.88;4102401;28;20114;-65
2023/12/08 02:45:30;;;;;;;16.65;12.68;;;;;;;3.87;64.10;100037.06;4118919;28;20121;-65
2023/12/08 02:47:33;;;;;;;13.05;9.30;;;;;;;4.03;63.66;100029.06;4123616;28;20042;-65
2023/12/08 02:49:37;;;;;;;11.38;8.02;;;;;;;3.88;63.97;100026.81;4118845;28;20041;-65
2023/12/08 02:51:40;;;;;;;11.65;8.15;;;;;;;3.85;64.04;100024.16;4121900;28;20469;-66
2023/12/08 02:53:43;;;;;;;12.32;8.57;;;;;;;3.83;64.20;100031.81;4108350;28;20050;-66
2023/12/08 02:55:46;;;;;;;12.07;8.32;;;;;;;3.87;64.43;100019.06;4123107;28;20038;-66
2023/12/08 02:57:50;;;;;;;12.63;8.40;;;;;;;3.91;64.00;100023.50;4100896;28;20143;-65
2023/12/08 03:00:43;;;;;;;11.57;7.95;;;;;;;3.89;64.39;100040.59;4118237;28;20089;-65
2023/12/08 03:02:45;;;;;;;10.65;7.63;;;;;;;3.87;64.62;100032.81;4118218;28;20043;-65
2023/12/08 03:04:49;;;;;;;11.10;7.88;;;;;;;3.88;64.64;100038.81;4117324;28;20043;-65
2023/12/08 03:06:52;;;;;;;12.43;7.30;;;;;;;4.01;64.70;100012.69;4123641;28;20042;-65
2023/12/08 03:08:54;;;;;;;11.82;8.38;;;;;;;3.98;64.70;100004.88;4117880;28;20471;-65
2023/12/08 03:10:57;;;;;;;10.32;6.80;;;;;;;3.88;65.15;100006.25;4125293;28;20457;-65
2023/12/08 03:13:02;;;;;;;12.05;8.35;;;;;;;3.88;65.12;100010.53;4124964;28;20133;-65
2023/12/08 03:15:05;;;;;;;11.95;7.80;;;;;;;3.77;64.45;100020.47;4117110;28;20042;-65
2023/12/08 03:17:08;;;;;;;11.65;7.75;;;;;;;3.79;64.63;100011.09;4115994;28;20090;-65
2023/12/08 03:19:11;;;;;;;11.50;8.07;;;;;;;3.83;64.91;100018.97;4119105;28;20165;-65
2023/12/08 03:21:21;;;;;;;12.70;7.97;;;;;;;3.88;64.81;100021.69;4119686;28;20493;-65
2023/12/08 03:23:24;;;;;;;10.52;7.50;;;;;;;3.91;64.85;100019.22;4106619;28;20043;-65
2023/12/08 03:25:27;;;;;;;11.07;7.45;;;;;;;3.90;64.88;100014.03;4091165;28;20083;-65
2023/12/08 03:27:30;;;;;;;14.02;8.45;;;;;;;3.95;64.62;100010.78;4128639;28;20038;-65
2023/12/08 03:29:39;;;;;;;10.88;7.40;;;;;;;3.93;64.62;100012.44;4125576;28;20074;-65
2023/12/08 03:31:42;;;;;;;14.15;8.25;;;;;;;3.89;63.84;100002.88;4120467;28;20058;-65
2023/12/08 03:33:44;;;;;;;12.02;8.57;;;;;;;3.88;63.69;99989.97;4122674;28;20130;-66
2023/12/08 03:35:47;;;;;;;12.55;8.25;;;;;;;4.06;62.51;99982.88;4108653;28;20093;-65
2023/12/08 03:37:50;;;;;;;13.15;8.65;;;;;;;4.11;61.93;99965.88;4128928;28;20497;-65
2023/12/08 03:39:55;;;;;;;12.05;8.18;;;;;;;4.07;62.32;99961.44;4126830;28;20052;-65
2023/12/08 03:41:58;;;;;;;11.65;7.68;;;;;;;3.98;62.47;99961.16;4105314;28;20074;-65
2023/12/08 03:44:01;;;;;;;11.20;7.97;;;;;;;3.97;63.51;99972.25;4129608;28;20042;-65
2023/12/08 03:46:07;;;;;;;12.05;8.20;;;;;;;4.00;64.22;99969.78;4103483;28;20034;-65
2023/12/08 03:48:10;;;;;;;11.60;7.90;;;;;;;3.97;64.89;99968.00;4121640;28;20404;-65
2023/12/08 03:50:13;;;;;;;11.73;7.30;;;;;;;3.96;65.42;99955.09;4126477;28;20045;-66
2023/12/08 03:52:16;;;;;;;13.13;8.52;;;;;;;3.93;65.62;99961.00;4128003;28;20058;-65
2023/12/08 03:54:20;;;;;;;12.85;8.07;;;;;;;3.93;65.96;99945.59;4108944;28;20043;-65
2023/12/08 03:56:23;;;;;;;12.13;8.73;;;;;;;3.99;66.00;99944.91;4127788;28;20068;-65
2023/12/08 03:58:27;;;;;;;11.27;7.68;;;;;;;3.97;66.24;99941.41;4124534;28;20034;-66
2023/12/08 04:00:29;;;;;;;14.40;8.20;;;;;;;3.92;66.37;99942.97;4125989;28;20038;-65
2023/12/08 04:02:33;;;;;;;12.40;8.43;;;;;;;3.93;66.92;99939.53;4122293;28;20516;-65
2023/12/08 04:04:36;;;;;;;14.27;8.10;;;;;;;3.93;67.34;99947.25;4128883;28;20042;-65
2023/12/08 04:06:39;;;;;;;11.68;7.93;;;;;;;3.94;67.52;99937.06;4125241;28;20051;-65
2023/12/08 04:08:42;;;;;;;10.63;7.85;;;;;;;3.94;67.88;99943.88;4106062;28;20098;-65
2023/12/08 04:10:45;;;;;;;11.32;7.75;;;;;;;3.96;67.99;99939.66;4129393;28;20043;-65
2023/12/08 04:12:48;;;;;;;11.43;7.80;;;;;;;3.96;68.63;99949.97;4121328;28;20047;-65
2023/12/08 04:14:51;;;;;;;10.95;7.93;;;;;;;3.97;68.59;99943.97;4123706;28;20050;-65
2023/12/08 04:16:54;;;;;;;10.57;7.45;;;;;;;3.96;68.87;99943.09;4128911;28;20101;-65
2023/12/08 04:18:58;;;;;;;11.98;8.30;;;;;;;3.96;69.17;99939.66;4127147;28;20129;-65
2023/12/08 04:21:01;;;;;;;12.55;8.98;;;;;;;4.00;69.10;99938.91;4124641;28;20068;-65
2023/12/08 04:23:05;;;;;;;13.63;8.90;;;;;;;3.98;68.59;99940.59;4126821;28;20034;-65
2023/12/08 04:25:08;;;;;;;11.32;8.23;;;;;;;3.92;68.87;99936.13;4111962;28;20046;-65
2023/12/08 04:27:11;;;;;;;10.82;7.78;;;;;;;3.90;69.23;99939.44;4122924;28;20464;-65
2023/12/08 04:29:14;;;;;;;11.02;8.00;;;;;;;3.91;68.88;99946.34;4121832;28;20050;-65
2023/12/08 04:31:17;;;;;;;13.43;8.77;;;;;;;3.94;69.09;99941.31;4105643;28;20039;-65
2023/12/08 04:33:19;;;;;;;12.05;8.25;;;;;;;3.92;69.31;99946.41;4129205;28;20054;-65
2023/12/08 04:35:24;;;;;;;14.05;7.93;;;;;;;3.96;69.16;99955.09;4125585;28;20096;-65
2023/12/08 04:37:26;;;;;;;11.00;7.72;;;;;;;3.94;69.15;99959.31;4126837;28;20045;-65
2023/12/08 04:39:30;;;;;;;14.93;8.25;;;;;;;3.91;68.96;99972.94;4089858;29;20051;-65
2023/12/08 04:41:33;;;;;;;12.10;8.20;;;;;;;3.89;68.95;99969.44;4101628;28;20067;-65
2023/12/08 04:43:36;;;;;;;11.63;7.80;;;;;;;3.84;68.13;99951.28;4125959;28;20043;-65
2023/12/08 04:45:39;;;;;;;14.05;8.60;;;;;;;3.83;68.31;99966.69;4120845;28;20038;-65
2023/12/08 04:47:42;;;;;;;13.63;8.98;;;;;;;3.78;69.01;99965.63;4099581;28;20039;-65
2023/12/08 04:49:45;;;;;;;11.68;8.27;;;;;;;3.75;69.59;99975.81;4120347;28;20038;-65
2023/12/08 04:51:49;;;;;;;13.43;8.68;;;;;;;3.78;69.93;99979.38;4120785;28;20053;-66
2023/12/08 04:53:52;;;;;;;14.80;8.07;;;;;;;3.74;70.49;99980.09;4114133;28;20053;-66
2023/12/08 04:55:55;;;;;;;10.45;7.68;;;;;;;3.67;70.36;99985.84;4121153;28;20046;-66
2023/12/08 04:57:58;;;;;;;12.70;9.00;;;;;;;3.63;70.51;99987.41;4122028;28;20468;-66
2023/12/08 05:00:02;;;;;;;13.60;9.50;;;;;;;3.65;70.88;99982.31;4107490;28;20038;-65
2023/12/08 05:02:05;;;;;;;13.75;10.00;;;;;;;3.72;71.11;99981.72;4106309;28;20113;-66
2023/12/08 05:04:08;;;;;;;12.40;8.63;;;;;;;3.68;71.91;99979.91;4123199;28;20564;-66
2023/12/08 05:06:11;;;;;;;14.77;11.07;;;;;;;3.68;72.04;99979.91;4103628;28;20038;-66
2023/12/08 05:08:16;;;;;;;14.05;10.30;;;;;;;3.67;72.14;99985.84;4122022;28;20034;-66
2023/12/08 05:10:19;;;;;;;14.25;9.90;;;;;;;3.66;72.44;99981.53;4129217;28;20125;-66
2023/12/08 05:12:22;;;;;;;13.40;9.57;;;;;;;3.67;72.40;99986.72;4121914;28;20041;-65
2023/12/08 05:14:25;;;;;;;15.82;11.48;;;;;;;3.62;72.80;99983.13;4123449;28;20496;-66
2023/12/08 05:16:28;;;;;;;14.75;10.52;;;;;;;3.59;73.35;99992.41;4103004;28;20102;-65
2023/12/08 05:18:30;;;;;;;14.15;9.68;;;;;;;3.54;73.26;99983.69;4116925;28;20034;-65
2023/12/08 05:20:33;;;;;;;16.30;10.05;;;;;;;3.55;73.17;99987.97;4117316;28;20045;-66
2023/12/08 05:22:35;;;;;;;14.18;9.95;;;;;;;3.54;73.54;99984.53;4120963;28;20371;-66
2023/12/08 05:24:40;;;;;;;13.10;9.65;;;;;;;3.54;73.58;99986.25;4118859;28;20041;-65
2023/12/08 05:26:43;;;;;;;17.00;11.15;;;;;;;3.55;73.68;99990.53;4106365;28;20409;-66
2023/12/08 05:28:46;;;;;;;13.60;9.80;;;;;;;3.63;72.46;99990.00;4096683;28;20453;-65
2023/12/08 05:30:50;;;;;;;16.05;10.10;;;;;;;3.55;72.50;99987.97;4117460;28;20043;-65
2023/12/08 05:32:57;;;;;;;15.57;10.88;;;;;;;3.46;71.81;99999.69;4126976;28;20134;-65
2023/12/08 05:34:59;;;;;;;17.60;11.05;;;;;;;3.43;72.20;99994.47;4126804;28;20133;-66
2023/12/08 05:37:04;;;;;;;14.68;10.45;;;;;;;3.44;73.04;99998.75;4128414;28;20049;-65
2023/12/08 05:39:07;;;;;;;14.95;11.13;;;;;;;3.42;73.15;99995.28;4128522;28;20056;-65
2023/12/08 05:41:11;;;;;;;15.55;11.32;;;;;;;3.41;72.41;99995.22;4112987;28;20105;-65
2023/12/08 05:43:14;;;;;;;16.98;12.32;;;;;;;3.40;72.56;99986.66;4126355;28;20045;-65
2023/12/08 05:45:17;;;;;;;15.80;11.32;;;;;;;3.33;73.10;99984.69;4121545;28;20121;-66
2023/12/08 05:47:20;;;;;;;16.98;11.18;;;;;;;3.29;74.04;99987.94;4111127;28;20583;-65
2023/12/08 05:49:23;;;;;;;15.95;10.82;;;;;;;3.31;73.93;99983.72;4110106;28;20035;-66
2023/12/08 05:51:26;;;;;;;18.55;13.73;;;;;;;3.34;74.44;99988.97;4122702;28;20034;-65
2023/12/08 05:53:29;;;;;;;16.90;11.60;;;;;;;3.36;74.10;99987.34;4121454;28;20030;-65
2023/12/08 05:55:32;;;;;;;18.50;12.25;;;;;;;3.43;74.31;99989.31;4128485;28;20066;-66
2023/12/08 05:57:37;;;;;;;14.82;11.35;;;;;;;3.43;74.87;99984.19;4128220;28;20046;-66
2023/12/08 05:59:40;;;;;;;21.45;13.63;;;;;;;3.45;74.90;99981.66;4127781;28;20525;-66
2023/12/08 06:01:43;;;;;;;17.98;12.35;;;;;;;3.44;75.24;99987.63;4129018;28;20038;-66
2023/12/08 06:03:46;;;;;;;21.60;13.43;;;;;;;3.44;75.49;99985.91;4111059;28;20035;-66
2023/12/08 06:05:49;;;;;;;18.08;12.05;;;;;;;3.49;75.32;99983.53;4110129;28;20081;-66
2023/12/08 06:07:52;;;;;;;16.25;11.43;;;;;;;3.46;75.23;99984.28;4128945;28;20117;-66
2023/12/08 06:09:55;;;;;;;17.15;11.60;;;;;;;3.48;75.17;99987.78;4110349;28;20048;-66
2023/12/08 06:11:59;;;;;;;20.33;13.18;;;;;;;3.51;74.83;99999.84;4110869;28;20468;-66
2023/12/08 06:14:05;;;;;;;18.13;12.93;;;;;;;3.47;75.41;100004.00;4128029;28;20030;-66
2023/12/08 06:16:07;;;;;;;20.35;12.77;;;;;;;3.48;75.30;100005.75;4103140;28;20135;-66
2023/12/08 06:18:11;;;;;;;17.33;12.23;;;;;;;3.48;75.37;100003.19;4126126;28;20371;-66
2023/12/08 06:20:14;;;;;;;17.83;12.77;;;;;;;3.48;75.30;100003.19;4105282;28;20045;-66
2023/12/08 06:22:17;;;;;;;17.75;13.00;;;;;;;3.42;75.70;100008.13;4127910;28;20061;-66
2023/12/08 06:24:20;;;;;;;16.92;11.43;;;;;;;3.38;75.86;100003.69;4128754;28;20129;-66
2023/12/08 06:26:24;;;;;;;16.70;11.00;;;;;;;3.38;76.04;100001.13;4122818;28;20047;-66
2023/12/08 06:28:27;;;;;;;17.58;12.20;;;;;;;3.42;75.82;100002.97;4119039;28;20386;-66
2023/12/08 06:30:31;;;;;;;18.73;12.80;;;;;;;3.43;76.23;100004.75;4110454;28;20121;-66
2023/12/08 06:32:34;;;;;;;16.40;12.55;;;;;;;3.43;76.19;100008.97;4128718;28;20035;-65
2023/12/08 06:34:37;;;;;;;18.50;12.35;;;;;;;3.44;75.83;100001.31;4127176;28;20046;-65
2023/12/08 06:36:45;;;;;;;17.85;12.80;;;;;;;3.43;75.93;99999.59;4126924;28;20306;-66
2023/12/08 06:38:47;;;;;;;17.10;11.60;;;;;;;3.42;75.83;99996.97;4127674;28;20050;-66
2023/12/08 06:40:50;;;;;;;18.45;11.98;;;;;;;3.42;76.12;100000.41;4106576;28;20125;-66
2023/12/08 06:42:53;;;;;;;21.85;14.02;;;;;;;3.45;75.65;99984.22;4119209;28;20066;-66
2023/12/08 06:44:56;;;;;;;15.45;11.07;;;;;;;3.38;75.75;99990.84;4110437;28;20077;-65
2023/12/08 06:47:00;;;;;;;15.68;11.15;;;;;;;3.38;75.85;99985.69;4122340;28;20038;-66
2023/12/08 06:49:04;;;;;;;18.33;11.75;;;;;;;3.32;76.01;99982.91;4127191;28;20492;-66
2023/12/08 06:51:07;;;;;;;25.05;12.38;;;;;;;3.35;76.43;99980.44;4122211;28;20038;-65
2023/12/08 06:53:10;;;;;;;20.15;13.25;;;;;;;3.37;76.41;99981.38;4127748;28;20062;-66
2023/12/08 06:55:13;;;;;;;18.98;12.57;;;;;;;3.36;76.67;99982.22;4127336;28;20058;-66
2023/12/08 06:57:16;;;;;;;17.20;12.45;;;;;;;3.35;76.63;99983.03;4127759;28;20125;-66
2023/12/08 06:59:19;;;;;;;22.08;14.07;;;;;;;3.34;76.57;99986.41;4128711;28;20034;-66
2023/12/08 07:01:22;;;;;;;20.45;14.02;;;;;;;3.33;77.17;99976.97;4131677;28;20079;-66
2023/12/08 07:03:27;;;;;;;21.35;13.60;;;;;;;3.36;77.06;99986.47;4132084;28;20062;-66
2023/12/08 07:05:30;;;;;;;18.27;12.48;;;;;;;3.39;76.88;99986.56;4132135;28;20058;-66
2023/12/08 07:07:32;;;;;;;19.60;13.73;;;;;;;3.38;76.92;99984.84;4126334;28;20038;-66
2023/12/08 07:09:35;;;;;;;17.15;12.50;;;;;;;3.38;77.08;99985.69;4132764;28;20042;-66
2023/12/08 07:11:38;;;;;;;20.02;12.05;;;;;;;3.39;77.44;99994.28;4133086;28;20061;-66
2023/12/08 07:13:41;;;;;;;17.08;12.43;;;;;;;3.39;77.31;100002.88;4130012;28;20065;-66
2023/12/08 07:15:44;;;;;;;19.95;13.38;;;;;;;3.37;76.63;99994.22;4122138;28;20409;-66
2023/12/08 07:17:47;;;;;;;20.23;13.13;;;;;;;3.37;77.64;100001.06;4122085;28;20050;-66
2023/12/08 07:19:51;;;;;;;19.20;12.90;;;;;;;3.39;77.49;100008.00;4130359;28;20416;-66
2023/12/08 07:21:54;;;;;;;23.30;14.63;;;;;;;3.41;77.60;100002.94;4133766;28;20039;-66
2023/12/08 07:23:57;;;;;;;21.63;15.50;;;;;;;3.40;78.15;100004.63;4132751;28;20101;-66
2023/12/08 07:26:00;;;;;;;19.15;12.18;;;;;;;3.38;77.90;99998.53;4106152;28;20046;-66
2023/12/08 07:28:04;;;;;;;19.45;13.43;;;;;;;3.39;78.08;99997.72;4110563;28;20043;-66
2023/12/08 07:30:09;;;;;;;19.10;13.10;;;;;;;3.41;77.78;100002.94;4124487;28;20038;-66
2023/12/08 07:32:12;;;;;;;19.33;13.52;;;;;;;3.40;78.21;100009.78;4133299;28;20591;-66
2023/12/08 07:34:15;;;;;;;18.42;13.55;;;;;;;3.46;78.00;100001.38;4111160;28;20094;-67
2023/12/08 07:36:19;;;;;;;20.25;14.18;;;;;;;3.45;77.84;100012.50;4132636;28;20038;-66
2023/12/08 07:38:21;;;;;;;21.90;14.95;;;;;;;3.46;77.83;100002.28;4133343;28;20125;-66
2023/12/08 07:40:24;;;;;;;17.02;12.98;;;;;;;3.48;77.92;100004.91;4131670;28;20039;-66
2023/12/08 07:42:27;;;;;;;16.73;11.88;;;;;;;3.53;78.04;100005.06;4131133;28;20121;-66
2023/12/08 07:44:30;;;;;;;20.92;14.98;;;;;;;3.52;77.70;100006.75;4127332;28;20041;-66
2023/12/08 07:46:33;;;;;;;20.27;13.85;;;;;;;3.52;77.77;100008.44;4133222;28;20425;-66
2023/12/08 07:48:35;;;;;;;21.23;13.88;;;;;;;3.46;77.53;100009.97;4131457;28;20042;-66
2023/12/08 07:50:39;;;;;;;16.52;12.38;;;;;;;3.48;77.56;100008.31;4127235;28;20035;-66
2023/12/08 07:52:43;;;;;;;18.15;13.20;;;;;;;3.45;77.48;100013.38;4130098;28;20050;-66
2023/12/08 07:54:46;;;;;;;22.00;13.77;;;;;;;3.42;77.61;100008.13;4123475;28;20531;-66
2023/12/08 07:56:48;;;;;;;18.30;12.85;;;;;;;3.45;78.18;100007.34;4131527;28;20144;-65
2023/12/08 07:58:51;;;;;;;19.88;12.75;;;;;;;3.45;78.01;100018.50;4132460;28;20440;-66
2023/12/08 08:00:54;;;;;;;19.88;13.07;;;;;;;3.49;77.97;100011.78;4132515;28;20327;-65
2023/12/08 08:02:57;;;;;;;20.05;14.38;;;;;;;3.53;78.05;100016.19;4130464;28;20038;-65
2023/12/08 08:04:59;;;;;;;19.73;14.38;;;;;;;3.54;77.67;100023.09;4115242;28;20039;-65
2023/12/08 08:07:02;;;;;;;19.50;14.95;;;;;;;3.53;77.76;100021.34;4132303;28;20094;-65
2023/12/08 08:09:07;;;;;;;20.38;14.45;;;;;;;3.57;77.91;100018.06;4128874;28;20030;-65
2023/12/08 08:11:10;;;;;;;22.08;15.43;;;;;;;3.51;77.88;100022.13;4104243;28;20130;-65
2023/12/08 08:13:13;;;;;;;21.67;15.20;;;;;;;3.47;78.16;100023.69;4127808;28;20053;-66
2023/12/08 08:15:16;;;;;;;19.48;14.52;;;;;;;3.47;78.31;100024.56;4112889;28;20045;-65
2023/12/08 08:17:19;;;;;;;19.85;14.73;;;;;;;3.51;78.69;100024.69;4129945;28;20041;-66
2023/12/08 08:19:23;;;;;;;21.20;14.57;;;;;;;3.65;78.09;100015.75;4130643;28;20109;-66
2023/12/08 08:21:26;;;;;;;24.58;15.10;;;;;;;3.56;77.92;100018.00;4129816;28;20043;-66
2023/12/08 08:23:28;;;;;;;27.33;16.55;;;;;;;3.56;78.90;100015.44;4129436;28;20046;-66
2023/12/08 08:25:32;;;;;;;24.30;16.75;;;;;;;3.73;78.79;100018.59;4124276;28;20066;-66
2023/12/08 08:27:35;;;;;;;25.15;15.65;;;;;;;3.84;79.07;100031.00;4127909;28;20454;-66
2023/12/08 08:29:38;;;;;;;24.02;16.02;;;;;;;3.88;79.23;100018.25;4120405;28;20038;-66
2023/12/08 08:31:41;;;;;;;21.48;14.38;;;;;;;3.90;79.23;100016.59;4111622;28;20648;-66
2023/12/08 08:33:45;;;;;;;26.30;17.98;;;;;;;3.91;78.96;100015.78;4110542;28;20093;-64
2023/12/08 08:35:47;;;;;;;20.30;15.90;;;;;;;3.90;78.77;100017.50;4129558;28;20101;-65
2023/12/08 08:37:51;;;;;;;19.55;14.43;;;;;;;3.79;78.85;100023.94;4129652;28;20488;-65
2023/12/08 08:39:54;;;;;;;24.60;16.27;;;;;;;3.78;78.93;100027.34;4124028;28;20145;-65
2023/12/08 08:41:59;;;;;;;22.15;15.25;;;;;;;3.87;78.44;100022.53;4128907;28;20141;-64
2023/12/08 08:44:02;;;;;;;28.02;15.15;;;;;;;3.82;78.27;100021.47;4129530;28;20065;-66
2023/12/08 08:46:05;;;;;;;21.00;15.15;;;;;;;3.80;78.23;100030.84;4129378;28;20046;-65
2023/12/08 08:48:08;;;;;;;23.00;15.32;;;;;;;3.82;78.33;100035.19;4112226;28;20090;-66
2023/12/08 08:50:12;;;;;;;22.83;16.35;;;;;;;3.80;78.38;100031.72;4118476;28;20140;-65
2023/12/08 08:52:15;;;;;;;25.02;15.80;;;;;;;3.89;78.25;100028.59;4125815;28;20085;-65
2023/12/08 08:54:18;;;;;;;24.25;16.33;;;;;;;3.87;78.18;100032.81;4127897;28;20034;-65
2023/12/08 08:56:22;;;;;;;21.98;14.82;;;;;;;3.84;78.26;100037.81;4129335;28;20053;-65
2023/12/08 08:58:26;;;;;;;23.67;14.82;;;;;;;3.87;78.39;100037.97;4112295;28;20049;-65
2023/12/08 09:00:29;;;;;;;25.45;17.15;;;;;;;3.86;77.90;100040.47;4121817;28;20046;-65
2023/12/08 09:02:32;;;;;;;21.73;15.35;;;;;;;3.85;78.23;100037.00;4096032;28;20052;-65
2023/12/08 09:04:35;;;;;;;23.25;15.40;;;;;;;3.82;78.29;100035.19;4129055;28;20038;-66
2023/12/08 09:06:38;;;;;;;23.35;15.95;;;;;;;3.84;78.53;100038.72;4128438;28;20223;-66
2023/12/08 09:08:41;;;;;;;22.90;14.68;;;;;;;3.78;78.79;100043.66;4123516;28;20453;-66
2023/12/08 09:10:45;;;;;;;25.50;17.70;;;;;;;3.73;79.10;100049.47;4096486;29;20043;-66
2023/12/08 09:12:50;;;;;;;24.35;17.33;;;;;;;3.76;79.43;100041.84;4129159;28;20047;-66
2023/12/08 09:14:53;;;;;;;23.35;15.73;;;;;;;3.82;79.49;100037.78;4128986;28;20445;-66
2023/12/08 09:16:56;;;;;;;20.65;14.45;;;;;;;3.82;79.39;100037.78;4111811;28;20548;-66
2023/12/08 09:18:59;;;;;;;25.05;17.25;;;;;;;3.86;79.63;100037.91;4111605;28;20034;-66
2023/12/08 09:21:03;;;;;;;23.67;16.65;;;;;;;3.93;79.14;100035.59;4123446;28;20067;-66
2023/12/08 09:23:05;;;;;;;22.00;15.85;;;;;;;4.01;78.91;100025.56;4126397;28;20161;-66
2023/12/08 09:25:09;;;;;;;20.67;15.15;;;;;;;3.96;79.39;100016.81;4127051;28;20448;-66
2023/12/08 09:27:12;;;;;;;21.45;15.35;;;;;;;3.97;79.10;100019.44;4122026;28;20042;-66
2023/12/08 09:29:15;;;;;;;22.70;16.63;;;;;;;3.99;79.43;100016.94;4121415;28;20419;-66
2023/12/08 09:31:19;;;;;;;22.63;16.25;;;;;;;4.04;79.16;100030.78;4102562;28;20049;-65
2023/12/08 09:33:22;;;;;;;22.02;17.05;;;;;;;3.93;79.32;100026.97;4127154;28;20038;-65
2023/12/08 09:35:33;;;;;;;21.15;15.85;;;;;;;3.94;78.79;100027.06;4126871;28;20039;-65